Time;durP1;ratioP1;P1;durP2;ratioP2;P2;SDS_P1;SDS_P2;PMS_P1;PMS_P2;Temp;Humidity;BMP_temperature;BMP_pressure;BME280_temperature;BME280_humidity;BME280_pressure;Samples;Min_cycle;Max_cycle;Signal;HPM_P1;HPM_P2
2022/06/14 00:01:30;;;;;;;5.25;1.42;;;;;;;13.22;68.52;102529.63;4906576;29;20044;-80
2022/06/14 00:03:57;;;;;;;3.28;1.55;;;;;;;13.19;68.39;102533.22;4892006;29;20383;-80
2022/06/14 00:06:25;;;;;;;3.88;1.40;;;;;;;13.18;68.59;102528.00;4897234;29;20283;-79
2022/06/14 00:08:51;;;;;;;5.05;1.30;;;;;;;13.16;68.85;102528.03;4879620;29;20103;-79
2022/06/14 00:11:24;;;;;;;1.55;1.17;;;;;;;13.15;68.81;102525.44;4861009;29;20056;-79
2022/06/14 00:13:50;;;;;;;3.42;1.27;;;;;;;13.13;68.73;102527.22;4880209;29;20276;-80
2022/06/14 00:16:17;;;;;;;4.40;1.42;;;;;;;13.11;68.65;102519.38;4874521;29;20049;-80
2022/06/14 00:18:42;;;;;;;5.38;1.77;;;;;;;13.09;68.67;102522.97;4864478;29;20029;-80
2022/06/14 00:21:08;;;;;;;2.35;1.17;;;;;;;13.09;68.67;102517.69;4865145;29;20083;-79
2022/06/14 00:23:34;;;;;;;3.55;1.60;;;;;;;13.07;68.74;102523.00;4898291;29;20031;-79
2022/06/14 00:26:00;;;;;;;3.03;1.25;;;;;;;13.06;68.75;102521.25;4876498;29;20079;-80
2022/06/14 00:28:29;;;;;;;2.97;1.02;;;;;;;13.05;68.83;102516.91;4883005;29;20335;-80
2022/06/14 00:30:58;;;;;;;4.43;1.00;;;;;;;13.05;69.14;102522.16;4899135;29;20152;-80
2022/06/14 00:33:23;;;;;;;3.63;1.55;;;;;;;13.03;68.94;102523.97;4880657;29;20383;-80
2022/06/14 00:35:57;;;;;;;4.38;1.52;;;;;;;13.03;69.05;102521.34;4846401;29;20053;-79
2022/06/14 00:38:22;;;;;;;2.42;1.35;;;;;;;13.03;69.35;102534.50;4878731;29;20248;-80
2022/06/14 00:40:55;;;;;;;2.42;1.20;;;;;;;13.01;69.67;102521.38;4878843;29;20052;-79
2022/06/14 00:43:21;;;;;;;4.18;1.20;;;;;;;12.98;69.78;102518.81;4878662;29;20307;-80
2022/06/14 00:45:48;;;;;;;2.75;1.35;;;;;;;12.98;69.82;102526.69;4872821;29;20228;-80
2022/06/14 00:48:24;;;;;;;1.45;1.23;;;;;;;12.98;69.74;102523.22;4895550;29;20036;-79
2022/06/14 00:50:55;;;;;;;2.00;1.23;;;;;;;12.95;69.91;102521.53;4899990;29;20327;-79
2022/06/14 00:53:32;;;;;;;2.25;1.30;;;;;;;12.94;70.13;102516.31;4881337;29;20037;-80
2022/06/14 00:56:10;;;;;;;2.28;1.00;;;;;;;12.92;69.72;102516.34;4880634;29;20037;-80
2022/06/14 00:58:45;;;;;;;7.22;1.73;;;;;;;12.91;69.86;102519.00;4881087;29;20025;-79
2022/06/14 01:04:46;;;;;;;2.47;1.15;;;;;;;12.86;70.15;102508.56;4880239;29;20052;-78
2022/06/14 01:07:21;;;;;;;2.47;1.30;;;;;;;12.84;70.37;102516.53;4908721;29;20395;-79
2022/06/14 01:10:00;;;;;;;6.75;1.58;;;;;;;12.83;70.15;102506.91;4910821;29;20041;-79
2022/06/14 01:12:31;;;;;;;4.05;1.55;;;;;;;12.80;70.31;102514.00;4908914;29;20039;-79
2022/06/14 01:15:06;;;;;;;4.38;1.60;;;;;;;12.78;70.20;102507.91;4914717;29;20402;-79
2022/06/14 01:17:43;;;;;;;3.83;1.38;;;;;;;12.77;70.49;102506.16;4906189;29;20347;-79
2022/06/14 01:20:11;;;;;;;2.80;1.40;;;;;;;12.74;70.22;102504.50;4909683;29;20313;-79
2022/06/14 01:22:37;;;;;;;4.97;1.70;;;;;;;12.73;70.56;102507.16;4903187;29;20227;-79
2022/06/14 01:25:04;;;;;;;5.80;1.35;;;;;;;12.71;70.63;102495.81;4908548;29;20067;-78
2022/06/14 01:27:32;;;;;;;3.05;1.30;;;;;;;12.70;70.33;102497.56;4910715;29;20052;-79
2022/06/14 01:30:04;;;;;;;6.43;1.40;;;;;;;12.70;70.45;102497.56;4909708;29;20331;-79
2022/06/14 01:32:33;;;;;;;3.67;1.35;;;;;;;12.68;70.61;102494.97;4921532;29;20258;-79
2022/06/14 01:35:04;;;;;;;5.85;1.50;;;;;;;12.66;70.66;102481.00;4920516;29;20040;-79
2022/06/14 01:37:30;;;;;;;9.43;2.17;;;;;;;12.65;70.76;102478.41;4917421;29;20294;-79
2022/06/14 01:39:56;;;;;;;6.03;1.60;;;;;;;12.64;70.60;102482.81;4913175;29;20031;-79
2022/06/14 01:42:49;;;;;;;4.15;1.30;;;;;;;12.63;70.86;102480.22;4919964;29;20092;-79
2022/06/14 01:45:48;;;;;;;5.47;1.42;;;;;;;12.61;71.04;102476.78;4902062;29;20358;-79
2022/06/14 01:48:32;;;;;;;;;;;;;;;12.59;71.01;102470.69;4903445;29;20024;-79
2022/06/14 01:54:20;;;;;;;3.47;1.38;;;;;;;12.56;71.05;102471.59;4902319;29;20410;-79
2022/06/14 01:57:04;;;;;;;3.13;1.55;;;;;;;12.54;71.16;102468.16;4908425;29;20143;-79
2022/06/14 01:59:46;;;;;;;2.53;1.35;;;;;;;12.53;71.14;102466.41;4913149;29;20219;-79
2022/06/14 02:06:18;;;;;;;2.55;1.60;;;;;;;12.49;71.31;102465.63;4871154;29;20168;-79
2022/06/14 02:08:53;;;;;;;1.92;1.40;;;;;;;12.47;71.27;102467.41;4896913;29;20323;-78
2022/06/14 02:11:26;;;;;;;3.00;1.50;;;;;;;12.47;71.62;102467.41;4912253;29;20156;-79
2022/06/14 02:14:12;;;;;;;4.25;1.90;;;;;;;12.44;71.51;102467.50;4914584;29;20036;-78
2022/06/14 02:16:43;;;;;;;3.20;1.50;;;;;;;12.44;71.36;102469.25;4908079;29;20216;-79
2022/06/14 02:19:20;;;;;;;2.63;1.17;;;;;;;12.44;71.45;102470.13;4899801;29;20259;-78
2022/06/14 02:21:50;;;;;;;5.30;1.98;;;;;;;12.43;71.41;102463.13;4904343;29;20096;-79
2022/06/14 02:24:35;;;;;;;2.25;1.50;;;;;;;12.43;71.27;102463.13;4906482;29;20035;-79
2022/06/14 02:27:09;;;;;;;2.85;1.52;;;;;;;12.42;71.36;102461.38;4915476;29;20059;-79
2022/06/14 02:29:42;;;;;;;3.90;1.60;;;;;;;12.42;71.40;102463.16;4892424;29;20089;-80
2022/06/14 02:32:15;;;;;;;4.00;1.33;;;;;;;12.42;71.42;102457.91;4882452;29;20043;-79
2022/06/14 02:34:49;;;;;;;3.10;1.35;;;;;;;12.41;71.63;102459.69;4919060;29;20036;-80
2022/06/14 02:37:22;;;;;;;2.17;1.30;;;;;;;12.41;71.67;102459.69;4901532;29;20056;-79
2022/06/14 02:39:55;;;;;;;3.72;1.20;;;;;;;12.40;71.44;102464.97;4900305;29;20036;-79
2022/06/14 02:42:29;;;;;;;3.85;1.30;;;;;;;12.38;71.95;102454.47;4908768;29;20043;-79
2022/06/14 02:45:12;;;;;;;3.42;1.58;;;;;;;12.37;71.70;102462.41;4913282;29;20024;-79
2022/06/14 02:47:49;;;;;;;3.63;1.55;;;;;;;12.35;71.88;102462.47;4912065;29;20324;-80
2022/06/14 02:50:40;;;;;;;2.33;1.20;;;;;;;12.34;71.75;102455.47;4891896;29;20031;-79
2022/06/14 02:53:09;;;;;;;2.33;1.33;;;;;;;12.32;72.06;102449.38;4909819;29;20264;-79
2022/06/14 02:55:43;;;;;;;2.00;1.27;;;;;;;12.31;71.98;102452.91;4901087;29;20095;-79
2022/06/14 02:58:14;;;;;;;2.80;1.40;;;;;;;12.29;71.87;102452.91;4896630;29;20039;-79
2022/06/14 03:00:46;;;;;;;2.20;1.50;;;;;;;12.28;71.86;102447.72;4910421;29;20036;-79
2022/06/14 03:03:23;;;;;;;3.55;1.33;;;;;;;12.27;72.13;102446.00;4887477;29;20040;-79
2022/06/14 03:06:03;;;;;;;2.85;1.33;;;;;;;12.26;71.88;102452.13;4884624;29;20041;-80
2022/06/14 03:08:37;;;;;;;3.72;1.60;;;;;;;12.24;72.00;102443.41;4901800;29;20087;-80
2022/06/14 03:11:29;;;;;;;3.60;1.48;;;;;;;12.24;71.93;102446.03;4912439;29;20031;-79
2022/06/14 03:14:02;;;;;;;4.47;1.58;;;;;;;12.22;72.11;102448.69;4895682;29;20048;-80
2022/06/14 03:16:33;;;;;;;1.83;1.48;;;;;;;12.21;72.29;102449.63;4915174;29;20020;-80
2022/06/14 03:19:29;;;;;;;1.50;1.40;;;;;;;12.21;72.05;102435.63;4900714;29;20128;-80
2022/06/14 03:22:06;;;;;;;2.00;1.40;;;;;;;12.19;72.12;102442.69;4901900;29;20036;-79
2022/06/14 03:24:58;;;;;;;3.85;1.35;;;;;;;12.19;72.05;102440.06;4910130;29;20071;-80
2022/06/14 03:27:31;;;;;;;1.52;1.30;;;;;;;12.18;72.24;102440.94;4905153;29;20064;-80
2022/06/14 03:30:29;;;;;;;2.08;1.17;;;;;;;12.16;72.48;102440.97;4899996;29;20055;-79
2022/06/14 03:33:06;;;;;;;2.30;1.40;;;;;;;12.16;72.61;102448.84;4905836;29;20172;-79
2022/06/14 03:35:41;;;;;;;2.65;1.33;;;;;;;12.17;72.32;102449.69;4914895;29;20032;-79
2022/06/14 03:38:14;;;;;;;1.60;1.20;;;;;;;12.15;72.32;102448.88;4902439;29;20055;-79
2022/06/14 03:40:44;;;;;;;3.38;1.20;;;;;;;12.15;72.27;102448.88;4906042;29;20047;-79
2022/06/14 03:43:10;;;;;;;4.35;1.45;;;;;;;12.14;72.40;102452.41;4908077;29;20070;-79
2022/06/14 03:45:52;;;;;;;3.13;1.40;;;;;;;12.14;72.42;102455.03;4899051;29;20041;-79
2022/06/14 03:48:18;;;;;;;5.18;1.73;;;;;;;12.11;72.54;102448.06;4909891;29;20032;-79
2022/06/14 03:50:50;;;;;;;3.30;1.33;;;;;;;12.11;72.46;102450.69;4909648;29;20036;-79
2022/06/14 03:53:19;;;;;;;1.52;1.20;;;;;;;12.11;72.66;102448.06;4903843;29;20119;-79
2022/06/14 03:56:29;;;;;;;2.33;1.83;;;;;;;12.09;72.61;102448.09;4908630;29;20279;-80
2022/06/14 03:59:14;;;;;;;1.95;1.23;;;;;;;12.09;72.60;102455.97;4916871;29;20028;-80
2022/06/14 04:01:48;;;;;;;2.47;1.23;;;;;;;12.07;72.78;102447.28;4906285;29;20024;-79
2022/06/14 04:04:43;;;;;;;2.45;1.83;;;;;;;12.07;72.79;102451.66;4897879;29;20279;-80
2022/06/14 04:07:21;;;;;;;1.42;1.33;;;;;;;12.06;72.82;102453.44;4902165;29;20263;-80
2022/06/14 04:10:26;;;;;;;5.68;1.40;;;;;;;12.05;72.79;102459.56;4902787;29;20035;-80
2022/06/14 04:13:10;;;;;;;1.95;1.48;;;;;;;12.05;72.89;102462.19;4907020;29;20044;-79
2022/06/14 04:15:53;;;;;;;2.95;1.20;;;;;;;12.04;72.90;102456.97;4901906;29;20037;-79
2022/06/14 04:18:34;;;;;;;1.75;1.30;;;;;;;12.03;72.72;102457.91;4898843;29;20119;-80
2022/06/14 04:21:08;;;;;;;1.88;1.60;;;;;;;12.02;73.13;102457.00;4902527;29;20366;-79
2022/06/14 04:24:22;;;;;;;3.83;1.52;;;;;;;12.02;73.09;102446.50;4916795;29;20088;-79
2022/06/14 04:27:24;;;;;;;5.53;1.80;;;;;;;12.02;73.15;102453.53;4882509;29;20056;-79
2022/06/14 04:30:03;;;;;;;2.40;1.30;;;;;;;12.01;72.78;102449.19;4908677;29;20040;-79
2022/06/14 04:32:36;;;;;;;2.92;1.27;;;;;;;12.00;73.01;102452.69;4898709;29;20390;-79
2022/06/14 04:35:07;;;;;;;2.60;1.50;;;;;;;12.00;73.03;102458.81;4901238;29;20064;-80
2022/06/14 04:37:38;;;;;;;4.25;1.75;;;;;;;12.01;72.78;102460.53;4898630;29;20387;-79
2022/06/14 04:40:07;;;;;;;1.90;1.40;;;;;;;12.01;73.08;102455.28;4900146;29;20044;-79
2022/06/14 04:42:42;;;;;;;1.85;1.23;;;;;;;12.01;72.78;102452.66;4905363;29;20051;-79
2022/06/14 04:45:32;;;;;;;3.65;1.50;;;;;;;12.01;73.00;102457.91;4909490;29;20043;-79
2022/06/14 04:48:08;;;;;;;3.67;1.50;;;;;;;12.02;72.81;102454.38;4902439;29;20355;-79
2022/06/14 04:50:43;;;;;;;4.22;1.65;;;;;;;12.02;72.76;102457.00;4916295;29;20028;-79
2022/06/14 04:53:22;;;;;;;1.80;1.50;;;;;;;12.04;72.92;102457.88;4901430;29;20066;-79
2022/06/14 04:55:53;;;;;;;;;;;;;;;12.04;73.12;102456.97;4902954;29;20070;-79
2022/06/14 04:58:25;;;;;;;2.72;1.60;;;;;;;12.05;72.91;102463.97;4926116;29;20144;-79
2022/06/14 05:01:02;;;;;;;3.60;1.80;;;;;;;12.05;73.02;102458.72;4911593;29;20040;-79
2022/06/14 05:03:33;;;;;;;3.35;1.63;;;;;;;12.05;73.28;102456.94;4918727;29;20405;-79
2022/06/14 05:06:06;;;;;;;2.20;1.75;;;;;;;12.07;73.42;102454.31;4911803;29;20410;-79
2022/06/14 05:08:41;;;;;;;1.73;1.33;;;;;;;12.07;73.49;102460.41;4919718;29;20067;-79
2022/06/14 05:11:22;;;;;;;2.28;1.55;;;;;;;12.09;73.94;102463.00;4921965;29;20048;-79
2022/06/14 05:14:01;;;;;;;2.55;1.52;;;;;;;12.11;73.90;102466.47;4922772;29;20287;-79
2022/06/14 05:16:35;;;;;;;2.60;1.40;;;;;;;12.12;74.43;102465.56;4911443;29;20080;-80
2022/06/14 05:19:14;;;;;;;1.50;1.40;;;;;;;12.16;74.36;102466.38;4927956;29;20051;-80
2022/06/14 05:21:46;;;;;;;4.03;1.77;;;;;;;12.16;74.66;102467.22;4917393;29;20040;-80
2022/06/14 05:24:13;;;;;;;2.08;1.60;;;;;;;12.17;74.88;102462.84;4909959;29;20041;-80
2022/06/14 05:27:05;;;;;;;3.58;1.83;;;;;;;12.20;74.93;102453.13;4902612;29;20068;-79
2022/06/14 05:29:43;;;;;;;1.95;1.55;;;;;;;12.21;75.08;102464.53;4885744;29;20564;-79
2022/06/14 05:32:29;;;;;;;2.60;1.58;;;;;;;12.23;75.19;102462.72;4901485;29;20028;-80
2022/06/14 05:35:07;;;;;;;2.55;1.70;;;;;;;12.24;75.35;102460.06;4903922;29;20044;-79
2022/06/14 05:37:54;;;;;;;1.75;1.65;;;;;;;12.26;75.04;102462.63;4903783;29;20043;-80
2022/06/14 05:40:26;;;;;;;2.33;1.77;;;;;;;12.28;74.98;102471.38;4904938;29;20044;-79
2022/06/14 05:43:06;;;;;;;1.98;1.65;;;;;;;12.29;75.20;102457.31;4900982;29;20343;-80
2022/06/14 05:45:39;;;;;;;2.65;1.60;;;;;;;12.32;75.26;102461.66;4893344;29;20040;-79
2022/06/14 05:48:08;;;;;;;1.35;1.25;;;;;;;12.33;75.39;102466.84;4907851;29;20051;-80
2022/06/14 05:50:39;;;;;;;2.97;1.70;;;;;;;12.34;75.31;102460.72;4884629;29;20032;-79
2022/06/14 05:53:12;;;;;;;2.20;1.48;;;;;;;12.35;75.19;102462.47;4906281;29;20406;-80
2022/06/14 05:55:49;;;;;;;1.50;1.20;;;;;;;12.37;75.05;102470.28;4893190;29;20940;-79
2022/06/14 05:58:24;;;;;;;1.60;1.50;;;;;;;12.36;74.64;102458.91;4896218;29;20354;-80
2022/06/14 06:00:58;;;;;;;1.50;1.40;;;;;;;12.38;74.54;102457.13;4907298;29;20044;-80
2022/06/14 06:03:33;;;;;;;1.70;1.40;;;;;;;12.39;74.79;102458.84;4904713;29;20338;-80
2022/06/14 06:06:06;;;;;;;1.40;1.23;;;;;;;12.42;75.11;102463.16;4903871;29;20047;-79
2022/06/14 06:08:40;;;;;;;1.90;1.50;;;;;;;12.42;74.89;102464.03;4906792;29;20038;-79
2022/06/14 06:11:13;;;;;;;1.45;1.33;;;;;;;12.42;75.20;102466.66;4911492;29;20103;-79
2022/06/14 06:14:03;;;;;;;1.30;1.17;;;;;;;12.44;75.12;102464.88;4908044;29;20040;-80
2022/06/14 06:16:54;;;;;;;2.47;2.15;;;;;;;12.47;74.89;102466.56;4896405;29;20200;-80
2022/06/14 06:19:24;;;;;;;2.10;1.20;;;;;;;12.46;74.84;102463.06;4904180;29;20133;-79
2022/06/14 06:22:00;;;;;;;2.55;1.30;;;;;;;12.49;75.08;102470.00;4904271;29;20304;-79
2022/06/14 06:24:43;;;;;;;1.85;1.30;;;;;;;12.52;74.60;102471.72;4905989;29;20404;-80
2022/06/14 06:27:10;;;;;;;2.55;1.10;;;;;;;12.52;74.77;102469.09;4904871;29;20041;-79
2022/06/14 06:29:53;;;;;;;2.17;0.90;;;;;;;12.54;74.37;102470.78;4907263;29;20047;-79
2022/06/14 06:32:20;;;;;;;3.28;1.35;;;;;;;12.54;74.31;102473.41;4908268;29;20279;-79
2022/06/14 06:34:48;;;;;;;2.28;1.35;;;;;;;12.57;74.28;102478.59;4879743;29;20124;-79
2022/06/14 06:37:26;;;;;;;1.73;1.30;;;;;;;12.59;73.82;102478.56;4900364;29;20060;-79
2022/06/14 06:40:00;;;;;;;3.35;1.00;;;;;;;12.62;73.79;102475.84;4906874;29;20065;-79
2022/06/14 06:42:32;;;;;;;1.98;1.13;;;;;;;12.63;72.55;102475.81;4895730;29;20231;-79
2022/06/14 06:45:05;;;;;;;4.22;1.77;;;;;;;12.66;72.33;102475.75;4909784;29;20203;-79
2022/06/14 06:47:36;;;;;;;5.93;1.90;;;;;;;12.69;72.52;102477.44;4907770;29;20040;-80
2022/06/14 06:50:17;;;;;;;4.25;2.03;;;;;;;12.71;71.95;102480.88;4895059;29;20031;-80
2022/06/14 06:52:57;;;;;;;2.53;1.60;;;;;;;12.75;72.04;102473.78;4906116;29;20324;-80
2022/06/14 06:55:41;;;;;;;5.65;1.95;;;;;;;12.80;71.74;102478.03;4908641;29;20156;-79
2022/06/14 06:58:13;;;;;;;5.40;2.40;;;;;;;12.84;71.64;102484.09;4910426;29;20060;-80
2022/06/14 07:00:40;;;;;;;7.30;1.98;;;;;;;12.90;70.94;102475.19;4904800;29;20052;-79
2022/06/14 07:03:47;;;;;;;8.13;2.45;;;;;;;12.99;71.23;102480.25;4891025;29;20046;-79
2022/06/14 07:06:21;;;;;;;5.10;2.10;;;;;;;13.02;71.37;102477.53;4878415;29;20040;-79
2022/06/14 07:09:17;;;;;;;6.40;2.05;;;;;;;13.07;71.14;102473.03;4909123;29;20079;-79
2022/06/14 07:11:51;;;;;;;1.83;1.25;;;;;;;13.12;71.24;102475.53;4902291;29;20091;-79
2022/06/14 07:14:21;;;;;;;5.65;2.10;;;;;;;13.19;71.49;102479.75;4919568;29;20021;-79
2022/06/14 07:16:58;;;;;;;5.07;1.95;;;;;;;13.20;71.15;102484.94;4914086;29;20028;-80
2022/06/14 07:19:44;;;;;;;4.00;1.83;;;;;;;13.28;70.61;102478.63;4905260;29;20055;-80
2022/06/14 07:22:41;;;;;;;6.65;2.25;;;;;;;13.33;71.14;102479.41;4902196;29;20027;-79
2022/06/14 07:25:29;;;;;;;2.95;1.95;;;;;;;13.39;71.04;102481.91;4899423;29;20055;-79
2022/06/14 07:28:12;;;;;;;3.20;1.97;;;;;;;13.44;71.42;102472.09;4909410;29;20043;-79
2022/06/14 07:30:49;;;;;;;5.38;1.90;;;;;;;13.49;71.24;102483.34;4907391;29;20324;-79
2022/06/14 07:33:17;;;;;;;3.58;2.40;;;;;;;13.55;71.20;102475.31;4908295;29;20034;-79
2022/06/14 07:36:12;;;;;;;4.80;2.00;;;;;;;13.61;70.66;102479.56;4902481;29;20040;-79
2022/06/14 07:38:57;;;;;;;3.65;1.90;;;;;;;13.66;70.31;102479.41;4882568;29;20051;-79
2022/06/14 07:41:38;;;;;;;5.05;2.00;;;;;;;13.69;69.12;102485.44;4907834;29;20040;-79
2022/06/14 07:44:15;;;;;;;5.32;1.98;;;;;;;13.72;69.74;102485.38;4903342;29;20327;-79
2022/06/14 07:46:59;;;;;;;5.53;1.95;;;;;;;13.72;68.88;102484.53;4922207;29;20036;-79
2022/06/14 07:49:30;;;;;;;4.22;2.05;;;;;;;13.75;69.13;102492.31;4903915;29;20031;-79
2022/06/14 07:52:13;;;;;;;6.30;2.13;;;;;;;13.77;68.83;102483.50;4900202;29;20040;-80
2022/06/14 07:54:47;;;;;;;3.65;2.00;;;;;;;13.82;68.25;102480.72;4902512;29;20107;-79
2022/06/14 07:57:26;;;;;;;3.95;1.80;;;;;;;13.87;68.18;102483.22;4898822;29;20052;-79
2022/06/14 08:02:59;;;;;;;3.85;1.95;;;;;;;13.96;67.38;102483.81;4899277;29;20406;-79
2022/06/14 08:05:32;;;;;;;4.60;2.22;;;;;;;13.98;67.11;102481.13;4904371;29;20032;-79
2022/06/14 08:08:04;;;;;;;3.78;1.92;;;;;;;13.99;67.75;102470.56;4913339;29;20369;-79
2022/06/14 08:10:37;;;;;;;9.18;1.98;;;;;;;14.05;67.31;102474.78;4900611;29;20044;-79
2022/06/14 08:13:08;;;;;;;5.07;1.73;;;;;;;14.09;67.31;102478.19;4902728;29;20039;-79
2022/06/14 08:15:40;;;;;;;4.35;1.65;;;;;;;14.13;67.39;102472.78;4908640;29;20028;-79
2022/06/14 08:18:15;;;;;;;3.35;1.95;;;;;;;14.14;66.51;102471.03;4905960;29;20332;-79
2022/06/14 08:21:06;;;;;;;2.25;1.40;;;;;;;14.15;66.21;102467.47;4909870;29;20562;-79
2022/06/14 08:23:40;;;;;;;6.82;2.15;;;;;;;14.19;67.04;102466.50;4899176;29;20239;-79
2022/06/14 08:26:11;;;;;;;8.90;2.00;;;;;;;14.22;67.04;102469.00;4904375;29;20033;-79
2022/06/14 08:28:52;;;;;;;5.45;1.83;;;;;;;14.24;66.87;102466.34;4909462;29;20035;-79
2022/06/14 08:31:44;;;;;;;3.35;1.60;;;;;;;14.27;66.80;102455.72;4907575;29;20083;-79
2022/06/14 08:34:25;;;;;;;3.88;2.03;;;;;;;14.28;66.92;102455.66;4911770;29;20068;-79
2022/06/14 08:37:17;;;;;;;4.40;1.98;;;;;;;14.32;67.21;102451.16;4910583;29;20434;-79
2022/06/14 08:39:59;;;;;;;4.45;1.75;;;;;;;14.38;66.95;102453.59;4909784;29;20044;-79
2022/06/14 08:42:36;;;;;;;2.33;1.42;;;;;;;14.43;67.02;102458.75;4915467;29;20040;-79
2022/06/14 08:45:10;;;;;;;4.38;1.75;;;;;;;14.46;66.08;102458.63;4893652;29;20319;-79
2022/06/14 08:47:54;;;;;;;3.45;1.73;;;;;;;14.50;66.42;102444.47;4914195;29;20252;-79
2022/06/14 08:50:42;;;;;;;6.50;1.98;;;;;;;14.52;66.66;102458.44;4905559;29;20051;-79
2022/06/14 08:53:07;;;;;;;5.15;2.15;;;;;;;14.54;66.13;102452.22;4912764;29;20067;-79
2022/06/14 08:55:54;;;;;;;4.77;2.23;;;;;;;14.59;65.90;102449.47;4911033;29;20426;-79
2022/06/14 08:58:50;;;;;;;11.77;2.20;;;;;;;14.59;65.68;102442.41;4898172;29;20385;-79
2022/06/14 09:01:34;;;;;;;2.97;1.77;;;;;;;14.62;66.02;102444.09;4910600;29;20215;-79
2022/06/14 09:04:10;;;;;;;3.20;1.98;;;;;;;14.65;66.33;102451.03;4914719;29;20028;-79
2022/06/14 09:06:53;;;;;;;3.90;2.00;;;;;;;14.64;66.45;102436.97;4929468;29;20032;-79
2022/06/14 09:09:31;;;;;;;2.50;1.52;;;;;;;14.66;66.38;102444.84;4903326;29;20076;-79
2022/06/14 09:12:09;;;;;;;5.43;1.88;;;;;;;14.66;66.87;102437.81;4909668;29;20090;-79
2022/06/14 09:15:19;;;;;;;2.80;1.58;;;;;;;14.68;66.49;102440.38;4888131;29;20035;-79
2022/06/14 09:18:10;;;;;;;4.60;1.98;;;;;;;14.68;67.00;102429.84;4904319;29;20279;-79
2022/06/14 09:20:42;;;;;;;6.32;1.88;;;;;;;14.73;67.14;102433.19;4905685;29;20062;-79
2022/06/14 09:23:18;;;;;;;2.42;1.70;;;;;;;14.77;67.55;102433.06;4906382;29;20131;-79
2022/06/14 09:26:02;;;;;;;4.40;2.03;;;;;;;14.83;68.10;102436.41;4893322;29;20044;-79
2022/06/14 09:29:11;;;;;;;6.07;2.38;;;;;;;14.88;65.66;102431.81;4914317;29;20064;-79
2022/06/14 09:32:15;;;;;;;4.97;2.40;;;;;;;14.89;64.13;102430.91;4901252;29;20323;-79
2022/06/14 09:34:51;;;;;;;3.97;1.90;;;;;;;14.91;64.33;102432.56;4910941;29;20359;-80
2022/06/14 09:37:52;;;;;;;3.70;2.08;;;;;;;14.94;64.90;102443.03;4896870;29;20424;-79
2022/06/14 09:40:46;;;;;;;3.92;2.33;;;;;;;14.98;65.22;102438.50;4905762;29;20025;-79
2022/06/14 09:43:11;;;;;;;6.82;1.75;;;;;;;15.02;64.75;102426.09;4903202;29;20339;-79
2022/06/14 09:45:46;;;;;;;3.23;1.90;;;;;;;15.05;64.52;102429.47;4893000;29;20058;-79
2022/06/14 09:48:33;;;;;;;3.05;2.00;;;;;;;15.09;63.23;102430.25;4903265;29;20337;-80
2022/06/14 09:51:10;;;;;;;5.15;2.13;;;;;;;15.12;62.25;102425.72;4908351;29;20070;-80
2022/06/14 09:53:36;;;;;;;4.45;2.00;;;;;;;15.15;62.65;102422.97;4913461;29;20061;-79
2022/06/14 09:56:22;;;;;;;4.30;2.10;;;;;;;15.19;63.57;102426.38;4910441;29;20036;-79
2022/06/14 09:59:22;;;;;;;9.73;2.55;;;;;;;15.25;65.37;102417.38;4910042;29;20283;-79
2022/06/14 10:02:04;;;;;;;4.20;1.83;;;;;;;15.30;66.05;102421.56;4886901;29;20500;-79
2022/06/14 10:04:30;;;;;;;3.58;2.10;;;;;;;15.39;63.36;102417.75;4893737;29;20347;-79
2022/06/14 10:07:14;;;;;;;3.38;2.28;;;;;;;15.46;63.03;102407.81;4852242;29;20057;-79
2022/06/14 10:10:06;;;;;;;6.07;2.50;;;;;;;15.50;62.86;102412.94;4878491;29;20076;-79
2022/06/14 10:13:05;;;;;;;3.85;2.33;;;;;;;15.57;62.40;102405.63;4880518;29;20036;-79
2022/06/14 10:15:44;;;;;;;5.07;2.17;;;;;;;15.62;62.51;102408.97;4885128;29;20048;-79
2022/06/14 10:18:20;;;;;;;3.90;2.17;;;;;;;15.70;61.41;102403.44;4880086;29;20040;-79
2022/06/14 10:21:04;;;;;;;2.83;2.20;;;;;;;15.76;61.70;102399.72;4891868;29;20058;-79
2022/06/14 10:23:46;;;;;;;3.38;2.20;;;;;;;15.83;61.27;102393.28;4878569;29;20267;-80
2022/06/14 10:29:13;;;;;;;5.70;2.13;;;;;;;15.95;64.03;102392.81;4873675;29;20044;-79
2022/06/14 10:32:01;;;;;;;4.47;2.58;;;;;;;16.10;62.32;102388.72;4875477;29;20061;-79
2022/06/14 10:34:35;;;;;;;3.70;2.40;;;;;;;16.24;64.26;102385.50;4875516;29;20034;-79
2022/06/14 10:37:19;;;;;;;1.98;1.80;;;;;;;16.37;63.18;102384.13;4880175;29;20382;-79
2022/06/14 10:40:10;;;;;;;4.05;2.35;;;;;;;16.54;62.06;102388.72;4877903;29;20044;-79
2022/06/14 10:42:44;;;;;;;4.28;2.28;;;;;;;16.65;60.83;102383.81;4879627;29;20045;-80
2022/06/14 10:45:22;;;;;;;5.78;2.35;;;;;;;16.70;59.56;102384.50;4880708;29;20038;-79
2022/06/14 10:48:00;;;;;;;3.30;2.30;;;;;;;16.77;60.44;102378.94;4883672;29;20273;-79
2022/06/14 10:50:47;;;;;;;3.50;2.22;;;;;;;16.83;62.73;102379.59;4878308;29;20378;-79
2022/06/14 10:53:37;;;;;;;2.33;2.13;;;;;;;16.88;62.29;102371.44;4879614;29;20628;-79
2022/06/14 10:56:06;;;;;;;5.13;2.55;;;;;;;16.95;62.94;102372.88;4885266;29;20085;-80
2022/06/14 10:59:09;;;;;;;6.47;2.55;;;;;;;17.00;62.14;102370.06;4893411;29;20367;-79
2022/06/14 11:01:41;;;;;;;2.22;2.03;;;;;;;17.00;60.66;102376.19;4872066;29;20025;-79
2022/06/14 11:04:47;;;;;;;4.20;2.35;;;;;;;16.99;60.11;102374.50;4885273;29;20125;-79
2022/06/14 11:07:45;;;;;;;5.15;2.45;;;;;;;16.97;60.99;102363.13;4872436;29;20264;-79
2022/06/14 11:10:38;;;;;;;6.00;2.80;;;;;;;16.93;59.45;102363.31;4873104;29;20265;-79
2022/06/14 11:13:28;;;;;;;9.88;2.85;;;;;;;16.90;60.86;102359.03;4892303;29;20037;-79
2022/06/14 11:16:04;;;;;;;8.25;2.60;;;;;;;16.87;61.14;102361.78;4874565;29;20044;-79
2022/06/14 11:18:54;;;;;;;3.03;2.47;;;;;;;16.86;61.00;102354.75;4884264;29;20443;-79
2022/06/14 11:21:48;;;;;;;6.50;2.65;;;;;;;16.85;61.03;102363.66;4869208;29;20072;-79
2022/06/14 11:25:01;;;;;;;3.75;2.45;;;;;;;16.80;58.95;102358.50;4885747;29;20220;-79
2022/06/14 11:27:32;;;;;;;7.93;2.50;;;;;;;16.80;59.76;102366.44;4839600;29;20348;-79
2022/06/14 11:30:18;;;;;;;3.75;2.47;;;;;;;16.83;57.97;102357.56;4883222;29;20045;-79
2022/06/14 11:32:59;;;;;;;2.97;2.42;;;;;;;16.82;58.78;102355.81;4876067;29;20039;-79
2022/06/14 11:35:43;;;;;;;4.35;2.60;;;;;;;16.83;57.50;102355.78;4878764;29;20043;-79
2022/06/14 11:38:35;;;;;;;3.38;2.47;;;;;;;16.79;57.72;102355.91;4879100;29;20121;-79
2022/06/14 11:41:05;;;;;;;4.03;2.47;;;;;;;16.78;59.03;102348.94;4873469;29;20103;-79
2022/06/14 11:43:51;;;;;;;8.27;3.15;;;;;;;16.77;59.35;102350.72;4880795;29;20029;-79
2022/06/14 11:46:37;;;;;;;3.53;2.80;;;;;;;16.78;58.66;102348.94;4875480;29;20053;-79
2022/06/14 11:49:33;;;;;;;2.80;2.60;;;;;;;16.78;58.44;102348.94;4880187;29;20037;-79
2022/06/14 11:52:11;;;;;;;4.00;2.70;;;;;;;16.78;59.00;102343.63;4881288;29;20045;-79
2022/06/14 11:55:14;;;;;;;3.33;2.53;;;;;;;16.78;59.00;102336.56;4897752;29;20028;-80
2022/06/14 11:57:53;;;;;;;4.85;2.85;;;;;;;16.82;59.89;102337.28;4874008;29;20254;-79
2022/06/14 12:00:30;;;;;;;5.97;2.75;;;;;;;16.84;59.84;102338.94;4880757;29;20037;-79
2022/06/14 12:03:20;;;;;;;5.03;2.67;;;;;;;16.91;60.95;102336.91;4873755;29;20312;-79
2022/06/14 12:06:24;;;;;;;5.93;2.20;;;;;;;17.01;61.61;102330.28;4880520;29;20108;-79
2022/06/14 12:09:40;;;;;;;2.50;2.00;;;;;;;17.12;59.12;102329.81;4848579;29;20061;-80
2022/06/14 12:12:16;;;;;;;3.42;2.33;;;;;;;17.16;57.89;102331.41;4849802;29;20059;-79
2022/06/14 12:15:07;;;;;;;4.75;2.50;;;;;;;17.19;57.88;102330.38;4885008;29;20217;-79
2022/06/14 12:17:43;;;;;;;4.22;2.75;;;;;;;17.20;58.31;102325.03;4877607;29;20037;-79
2022/06/14 12:20:12;;;;;;;5.03;2.78;;;;;;;17.26;58.34;102327.41;4879511;29;20541;-79
2022/06/14 12:23:07;;;;;;;5.13;2.42;;;;;;;17.36;56.93;102324.34;4864275;29;20146;-79
2022/06/14 12:29:00;;;;;;;10.23;2.45;;;;;;;17.40;55.83;102320.63;4879381;29;20056;-79
2022/06/14 12:31:46;;;;;;;2.40;2.20;;;;;;;17.35;55.58;102304.94;4879244;29;20043;-79
2022/06/14 12:34:53;;;;;;;3.42;2.30;;;;;;;17.35;55.53;102312.88;4878065;29;20040;-79
2022/06/14 12:37:48;;;;;;;4.07;2.53;;;;;;;17.33;56.32;102308.59;4877378;29;20346;-79
2022/06/14 12:40:46;;;;;;;3.00;2.40;;;;;;;17.33;56.07;102301.50;4879570;29;20033;-80
2022/06/14 12:43:21;;;;;;;3.78;2.58;;;;;;;17.31;55.48;102306.00;4863019;29;20196;-79